Time,TemperatureF,DewpointF,PressureIn,WindDirection,WindDirectionDegrees,WindSpeedMPH,WindSpeedGustMPH,Humidity,HourlyPrecipIn,Conditions,Clouds,dailyrainin,SoftwareType,DateUTC
2013-03-08 00:06:00,54.5,51.0,30.19,ESE,118,1.0,5.0,87,0.00,,,0.00,weatherlink.com 1.10,2013-03-08 06:06:00,
2013-03-08 00:21:00,54.4,51.0,30.18,SE,135,0.0,4.0,87,0.00,,,0.00,weatherlink.com 1.10,2013-03-08 06:21:00,
2013-03-08 00:36:00,54.2,51.0,30.18,ESE,118,1.0,3.0,88,0.00,,,0.00,weatherlink.com 1.10,2013-03-08 06:36:00,
2013-03-08 00:51:00,53.9,51.0,30.17,ESE,110,1.0,2.0,89,0.00,,,0.00,weatherlink.com 1.10,2013-03-08 06:51:00,
2013-03-08 01:06:00,54.2,52.0,30.17,East,100,3.0,4.0,91,0.00,,,0.00,weatherlink.com 1.10,2013-03-08 07:06:00,
2013-03-08 01:21:00,54.4,52.0,30.17,ESE,109,1.0,2.0,91,0.00,,,0.00,weatherlink.com 1.10,2013-03-08 07:21:00,
2013-03-08 01:36:00,54.4,52.0,30.17,ESE,111,1.0,4.0,91,0.00,,,0.00,weatherlink.com 1.10,2013-03-08 07:36:00,
2013-03-08 01:51:00,54.5,52.0,30.17,ESE,111,0.0,3.0,92,0.00,,,0.00,weatherlink.com 1.10,2013-03-08 07:51:00,
2013-03-08 02:06:00,54.8,53.0,30.17,SE,135,1.0,2.0,92,0.00,,,0.00,weatherlink.com 1.10,2013-03-08 08:06:00,
2013-03-08 02:24:00,55.0,53.0,30.17,SE,139,1.0,2.0,92,0.00,,,0.00,weatherlink.com 1.10,2013-03-08 08:24:00,
2013-03-08 02:36:00,54.6,52.0,30.16,East,90,0.0,1.0,92,0.00,,,0.00,weatherlink.com 1.10,2013-03-08 08:36:00,
2013-03-08 02:51:00,53.7,52.0,30.15,East,90,0.0,0.0,92,0.00,,,0.00,weatherlink.com 1.10,2013-03-08 08:51:00,
2013-03-08 03:06:00,52.9,51.0,30.14,East,97,0.0,1.0,93,0.00,,,0.00,weatherlink.com 1.10,2013-03-08 09:06:00,
2013-03-08 03:22:00,52.5,51.0,30.14,East,97,0.0,1.0,94,0.00,,,0.00,weatherlink.com 1.10,2013-03-08 09:22:00,
2013-03-08 03:37:00,52.3,51.0,30.14,East,97,0.0,1.0,94,0.00,,,0.00,weatherlink.com 1.10,2013-03-08 09:37:00,
2013-03-08 03:52:00,52.1,51.0,30.13,ESE,115,1.0,1.0,95,0.00,,,0.00,weatherlink.com 1.10,2013-03-08 09:52:00,
2013-03-08 04:07:00,52.4,51.0,30.14,ESE,115,0.0,0.0,96,0.00,,,0.00,weatherlink.com 1.10,2013-03-08 10:07:00,
2013-03-08 04:22:00,52.2,51.0,30.13,ESE,116,0.0,0.0,96,0.00,,,0.00,weatherlink.com 1.10,2013-03-08 10:22:00,
2013-03-08 04:37:00,52.6,52.0,30.13,ESE,121,0.0,2.0,97,0.00,,,0.00,weatherlink.com 1.10,2013-03-08 10:37:00,
2013-03-08 04:52:00,53.0,52.0,30.13,SE,124,0.0,1.0,96,0.00,,,0.00,weatherlink.com 1.10,2013-03-08 10:52:00,
2013-03-08 05:07:00,53.2,52.0,30.14,East,101,0.0,0.0,97,0.00,,,0.00,weatherlink.com 1.10,2013-03-08 11:07:00,
2013-03-08 05:22:00,53.6,53.0,30.14,ENE,66,0.0,1.0,97,0.00,,,0.00,weatherlink.com 1.10,2013-03-08 11:22:00,
2013-03-08 05:37:00,53.7,53.0,30.14,ENE,72,0.0,1.0,97,0.00,,,0.00,weatherlink.com 1.10,2013-03-08 11:37:00,
2013-03-08 05:52:00,53.9,53.0,30.14,ENE,71,0.0,1.0,97,0.00,,,0.00,weatherlink.com 1.10,2013-03-08 11:52:00,
2013-03-08 06:07:00,54.3,54.0,30.14,ESE,105,0.0,0.0,97,0.00,,,0.00,weatherlink.com 1.10,2013-03-08 12:07:00,
2013-03-08 06:22:00,54.5,54.0,30.14,NE,41,0.0,2.0,98,0.00,,,0.00,weatherlink.com 1.10,2013-03-08 12:22:00,
2013-03-08 06:37:00,55.5,55.0,30.15,ESE,115,0.0,3.0,98,0.00,,,0.00,weatherlink.com 1.10,2013-03-08 12:37:00,
2013-03-08 06:52:00,56.6,56.0,30.15,ESE,109,1.0,4.0,98,0.00,,,0.00,weatherlink.com 1.10,2013-03-08 12:52:00,
2013-03-08 07:07:00,57.4,57.0,30.16,SE,132,1.0,2.0,98,0.00,,,0.00,weatherlink.com 1.10,2013-03-08 13:07:00,
2013-03-08 07:22:00,57.9,57.0,30.16,NNE,18,0.0,3.0,97,0.00,,,0.00,weatherlink.com 1.10,2013-03-08 13:22:00,
2013-03-08 07:37:00,58.4,57.0,30.16,ESE,121,0.0,2.0,96,0.00,,,0.00,weatherlink.com 1.10,2013-03-08 13:37:00,
2013-03-08 07:52:00,59.3,58.0,30.18,ENE,59,0.0,3.0,95,0.00,,,0.00,weatherlink.com 1.10,2013-03-08 13:52:00,
2013-03-08 08:07:00,60.0,58.0,30.19,ESE,118,1.0,2.0,94,0.00,,,0.00,weatherlink.com 1.10,2013-03-08 14:07:00,
2013-03-08 08:37:00,61.8,59.0,30.19,SE,146,1.0,5.0,91,0.00,,,0.00,weatherlink.com 1.10,2013-03-08 14:37:00,
2013-03-08 08:52:00,62.4,59.0,30.18,East,84,3.0,4.0,89,0.00,,,0.00,weatherlink.com 1.10,2013-03-08 14:52:00,
2013-03-08 09:07:00,62.9,59.0,30.18,NNE,25,2.0,8.0,87,0.00,,,0.00,weatherlink.com 1.10,2013-03-08 15:07:00,
2013-03-08 09:22:00,63.3,59.0,30.20,SE,127,1.0,5.0,86,0.00,,,0.00,weatherlink.com 1.10,2013-03-08 15:22:00,
2013-03-08 09:37:00,63.5,59.0,30.20,SSE,165,1.0,6.0,86,0.00,,,0.00,weatherlink.com 1.10,2013-03-08 15:37:00,
2013-03-08 09:52:00,64.0,60.0,30.20,SE,129,4.0,7.0,85,0.00,,,0.00,weatherlink.com 1.10,2013-03-08 15:52:00,
2013-03-08 10:07:00,65.2,60.0,30.20,East,95,1.0,6.0,84,0.00,,,0.00,weatherlink.com 1.10,2013-03-08 16:07:00,
2013-03-08 10:23:00,66.6,61.0,30.19,East,100,6.0,7.0,82,0.00,,,0.00,weatherlink.com 1.10,2013-03-08 16:23:00,
2013-03-08 10:38:00,67.7,61.0,30.20,SE,133,1.0,7.0,80,0.00,,,0.00,weatherlink.com 1.10,2013-03-08 16:38:00,
2013-03-08 10:53:00,68.1,61.0,30.20,East,81,2.0,9.0,78,0.00,,,0.00,weatherlink.com 1.10,2013-03-08 16:53:00,
2013-03-08 11:08:00,69.0,61.0,30.19,East,98,10.0,10.0,76,0.00,,,0.00,weatherlink.com 1.10,2013-03-08 17:08:00,
2013-03-08 11:23:00,68.9,61.0,30.19,East,89,3.0,11.0,76,0.00,,,0.00,weatherlink.com 1.10,2013-03-08 17:23:00,
2013-03-08 11:38:00,69.5,62.0,30.19,South,184,4.0,9.0,76,0.00,,,0.00,weatherlink.com 1.10,2013-03-08 17:38:00,
2013-03-08 11:53:00,69.6,61.0,30.19,ESE,120,4.0,11.0,74,0.00,,,0.00,weatherlink.com 1.10,2013-03-08 17:53:00,
2013-03-08 12:08:00,69.7,61.0,30.18,SE,124,7.0,10.0,73,0.00,,,0.00,weatherlink.com 1.10,2013-03-08 18:08:00,
2013-03-08 12:23:00,70.0,61.0,30.18,ESE,116,1.0,11.0,72,0.00,,,0.00,weatherlink.com 1.10,2013-03-08 18:23:00,
2013-03-08 12:38:00,70.0,61.0,30.17,ESE,116,7.0,10.0,72,0.00,,,0.00,weatherlink.com 1.10,2013-03-08 18:38:00,
2013-03-08 12:53:00,69.7,60.0,30.16,SE,127,6.0,10.0,72,0.00,,,0.00,weatherlink.com 1.10,2013-03-08 18:53:00,
2013-03-08 13:08:00,69.8,60.0,30.15,ESE,115,2.0,9.0,72,0.00,,,0.00,weatherlink.com 1.10,2013-03-08 19:08:00,
2013-03-08 13:23:00,69.9,60.0,30.13,NE,56,3.0,12.0,70,0.00,,,0.00,weatherlink.com 1.10,2013-03-08 19:23:00,
2013-03-08 13:38:00,69.9,60.0,30.12,NE,43,3.0,13.0,71,0.00,,,0.00,weatherlink.com 1.10,2013-03-08 19:38:00,
2013-03-08 13:53:00,70.5,60.0,30.11,SE,139,6.0,10.0,70,0.00,,,0.00,weatherlink.com 1.10,2013-03-08 19:53:00,
2013-03-08 14:08:00,71.3,60.0,30.10,ESE,115,4.0,11.0,68,0.00,,,0.00,weatherlink.com 1.10,2013-03-08 20:08:00,
2013-03-08 14:23:00,70.9,60.0,30.10,SSW,211,6.0,13.0,68,0.00,,,0.00,weatherlink.com 1.10,2013-03-08 20:23:00,
2013-03-08 14:38:00,70.5,59.0,30.10,SE,124,3.0,11.0,68,0.00,,,0.00,weatherlink.com 1.10,2013-03-08 20:38:00,
2013-03-08 14:53:00,70.0,59.0,30.10,SE,132,8.0,12.0,69,0.00,,,0.00,weatherlink.com 1.10,2013-03-08 20:53:00,
2013-03-08 15:08:00,70.6,60.0,30.09,ESE,108,4.0,12.0,68,0.00,,,0.00,weatherlink.com 1.10,2013-03-08 21:08:00,
2013-03-08 15:23:00,70.8,60.0,30.10,ESE,114,9.0,10.0,68,0.00,,,0.00,weatherlink.com 1.10,2013-03-08 21:23:00,
2013-03-08 15:38:00,69.9,59.0,30.10,NE,48,4.0,11.0,69,0.00,,,0.00,weatherlink.com 1.10,2013-03-08 21:38:00,
2013-03-08 15:53:00,69.9,59.0,30.09,NNE,17,2.0,8.0,69,0.00,,,0.00,weatherlink.com 1.10,2013-03-08 21:53:00,
2013-03-08 16:08:00,69.5,59.0,30.10,ESE,113,4.0,8.0,70,0.00,,,0.00,weatherlink.com 1.10,2013-03-08 22:08:00,
2013-03-08 16:23:00,69.3,59.0,30.11,NE,54,2.0,9.0,70,0.00,,,0.00,weatherlink.com 1.10,2013-03-08 22:23:00,
2013-03-08 16:38:00,68.6,59.0,30.11,SE,146,4.0,8.0,72,0.00,,,0.00,weatherlink.com 1.10,2013-03-08 22:38:00,
2013-03-08 16:53:00,67.9,59.0,30.11,East,96,5.0,9.0,74,0.00,,,0.00,weatherlink.com 1.10,2013-03-08 22:53:00,
2013-03-08 17:08:00,67.7,59.0,30.11,East,98,7.0,11.0,73,0.00,,,0.00,weatherlink.com 1.10,2013-03-08 23:08:00,
2013-03-08 17:23:00,67.3,59.0,30.13,East,82,2.0,8.0,74,0.00,,,0.00,weatherlink.com 1.10,2013-03-08 23:23:00,
2013-03-08 17:38:00,67.0,58.0,30.13,SE,142,5.0,9.0,73,0.00,,,0.00,weatherlink.com 1.10,2013-03-08 23:38:00,
2013-03-08 17:53:00,66.6,58.0,30.14,ESE,123,7.0,9.0,74,0.00,,,0.00,weatherlink.com 1.10,2013-03-08 23:53:00,
2013-03-08 18:08:00,66.1,58.0,30.13,SE,130,4.0,7.0,76,0.00,,,0.00,weatherlink.com 1.10,2013-03-09 00:08:00,
2013-03-08 18:23:00,65.6,58.0,30.13,East,91,2.0,8.0,77,0.00,,,0.00,weatherlink.com 1.10,2013-03-09 00:23:00,
2013-03-08 18:38:00,64.9,58.0,30.11,South,177,3.0,7.0,79,0.00,,,0.00,weatherlink.com 1.10,2013-03-09 00:38:00,
2013-03-08 18:53:00,64.6,58.0,30.10,ESE,103,2.0,11.0,80,0.00,,,0.00,weatherlink.com 1.10,2013-03-09 00:53:00,
2013-03-08 19:08:00,64.0,58.0,30.10,East,101,4.0,11.0,82,0.00,,,0.00,weatherlink.com 1.10,2013-03-09 01:08:00,
2013-03-08 19:23:00,63.6,58.0,30.10,SE,128,7.0,11.0,83,0.00,,,0.00,weatherlink.com 1.10,2013-03-09 01:23:00,
2013-03-08 19:38:00,63.2,58.0,30.09,SE,135,4.0,10.0,84,0.00,,,0.00,weatherlink.com 1.10,2013-03-09 01:38:00,
2013-03-08 19:53:00,62.6,58.0,30.09,ESE,108,5.0,10.0,86,0.00,,,0.00,weatherlink.com 1.10,2013-03-09 01:53:00,
2013-03-08 20:08:00,62.2,58.0,30.09,SSE,162,2.0,11.0,87,0.00,,,0.00,weatherlink.com 1.10,2013-03-09 02:08:00,
2013-03-08 20:23:00,61.9,58.0,30.08,East,96,5.0,15.0,87,0.00,,,0.00,weatherlink.com 1.10,2013-03-09 02:23:00,
2013-03-08 20:38:00,61.6,58.0,30.08,SE,134,8.0,12.0,88,0.00,,,0.00,weatherlink.com 1.10,2013-03-09 02:38:00,
2013-03-08 20:53:00,61.4,58.0,30.08,SE,133,5.0,13.0,89,0.00,,,0.00,weatherlink.com 1.10,2013-03-09 02:53:00,
2013-03-08 21:08:00,61.5,58.0,30.09,SSE,156,7.0,12.0,89,0.00,,,0.00,weatherlink.com 1.10,2013-03-09 03:08:00,
2013-03-08 21:23:00,61.5,58.0,30.10,SSE,152,6.0,10.0,89,0.00,,,0.00,weatherlink.com 1.10,2013-03-09 03:23:00,
2013-03-08 21:38:00,61.4,58.0,30.11,SSE,152,1.0,7.0,89,0.00,,,0.00,weatherlink.com 1.10,2013-03-09 03:38:00,
2013-03-08 21:53:00,61.3,58.0,30.10,SE,128,1.0,5.0,90,0.00,,,0.00,weatherlink.com 1.10,2013-03-09 03:53:00,
2013-03-08 22:09:00,61.2,58.0,30.09,ESE,109,1.0,6.0,90,0.00,,,0.00,weatherlink.com 1.10,2013-03-09 04:09:00,
2013-03-08 22:23:00,61.3,58.0,30.09,ESE,113,1.0,6.0,90,0.00,,,0.00,weatherlink.com 1.10,2013-03-09 04:23:00,
2013-03-08 22:39:00,61.4,59.0,30.09,ESE,116,2.0,6.0,90,0.00,,,0.00,weatherlink.com 1.10,2013-03-09 04:39:00,
2013-03-08 22:54:00,61.5,59.0,30.08,ESE,108,4.0,6.0,90,0.00,,,0.00,weatherlink.com 1.10,2013-03-09 04:54:00,
2013-03-08 23:09:00,61.5,59.0,30.08,ESE,114,4.0,6.0,90,0.00,,,0.00,weatherlink.com 1.10,2013-03-09 05:09:00,
2013-03-08 23:24:00,61.6,59.0,30.08,SE,132,2.0,7.0,90,0.00,,,0.00,weatherlink.com 1.10,2013-03-09 05:24:00,
2013-03-08 23:39:00,61.6,59.0,30.07,ESE,113,3.0,5.0,91,0.00,,,0.00,weatherlink.com 1.10,2013-03-09 05:39:00,
2013-03-08 23:54:00,61.6,59.0,30.07,ESE,116,1.0,7.0,91,0.00,,,0.00,weatherlink.com 1.10,2013-03-09 05:54:00,